createdAt,value
2019-02-20T00:00:08.362Z,17.43
2019-02-20T00:02:49.609Z,11.40
2019-02-20T00:05:30.494Z,16.07
2019-02-20T00:08:11.411Z,16.93
2019-02-20T00:10:51.994Z,10.60
2019-02-20T00:13:32.538Z,14.67
2019-02-20T00:16:13.122Z,13.90
2019-02-20T00:18:53.791Z,16.87
2019-02-20T00:21:34.850Z,9.57
2019-02-20T00:24:15.288Z,16.13
2019-02-20T00:26:55.738Z,13.50
2019-02-20T00:29:36.334Z,8.30
2019-02-20T00:32:17.098Z,13.83
2019-02-20T00:34:57.743Z,12.73
2019-02-20T00:37:38.658Z,23.13
2019-02-20T00:40:19.071Z,11.50
2019-02-20T00:42:59.847Z,15.63
2019-02-20T00:48:47.898Z,17.90
2019-02-20T00:54:23.078Z,14.30
2019-02-20T00:57:03.623Z,14.63
2019-02-20T00:59:44.528Z,10.70
2019-02-20T01:02:25.209Z,10.77
2019-02-20T01:05:05.925Z,12.33
2019-02-20T01:07:46.681Z,12.53
2019-02-20T01:10:27.739Z,12.70
2019-02-20T01:13:08.690Z,16.10
2019-02-20T01:15:49.110Z,7.37
2019-02-20T01:18:29.650Z,19.10
2019-02-20T01:21:10.234Z,11.07
2019-02-20T01:23:50.904Z,12.20
2019-02-20T01:26:31.708Z,12.50
2019-02-20T01:29:12.185Z,8.47
2019-02-20T01:31:53.017Z,12.10
2019-02-20T01:34:33.896Z,11.17
2019-02-20T01:37:14.419Z,9.13
2019-02-20T01:39:54.902Z,8.60
2019-02-20T01:42:35.602Z,7.60
2019-02-20T01:45:16.245Z,13.00
2019-02-20T01:47:57.296Z,9.57
2019-02-20T01:50:37.681Z,12.20
2019-02-20T01:53:18.385Z,7.63
2019-02-20T01:55:59.236Z,15.80
2019-02-20T01:58:40.514Z,8.20
2019-02-20T02:01:21.254Z,15.67
2019-02-20T02:04:00.599Z,10.67
2019-02-20T02:06:48.577Z,11.37
2019-02-20T02:09:36.837Z,8.63
2019-02-20T02:12:25.093Z,12.10
2019-02-20T02:15:20.018Z,17.03
2019-02-20T02:18:03.325Z,12.37
2019-02-20T02:20:51.692Z,11.10
2019-02-20T02:23:32.779Z,10.43
2019-02-20T02:26:13.884Z,9.43
2019-02-20T02:28:54.682Z,10.53
2019-02-20T02:31:35.374Z,15.47
2019-02-20T02:34:16.408Z,8.27
2019-02-20T02:36:57.141Z,14.00
2019-02-20T02:39:37.972Z,8.83
2019-02-20T02:42:18.840Z,16.60
2019-02-20T02:44:59.522Z,12.30
2019-02-20T02:47:40.327Z,16.70
2019-02-20T02:50:21.078Z,9.60
2019-02-20T02:53:01.932Z,10.90
2019-02-20T02:55:42.551Z,15.03
2019-02-20T02:58:23.634Z,8.40
2019-02-20T03:01:04.543Z,10.77
2019-02-20T03:03:45.419Z,17.40
2019-02-20T03:06:26.386Z,17.90
2019-02-20T03:09:07.313Z,11.37
2019-02-20T03:11:47.982Z,11.00
2019-02-20T03:14:28.517Z,14.67
2019-02-20T03:17:09.408Z,17.53
2019-02-20T03:19:49.820Z,11.23
2019-02-20T03:22:30.716Z,12.90
2019-02-20T03:25:11.546Z,22.17
2019-02-20T03:27:52.267Z,16.67
2019-02-20T03:30:33.144Z,18.93
2019-02-20T03:33:14.165Z,11.33
2019-02-20T03:35:54.923Z,10.47
2019-02-20T03:38:35.682Z,13.37
2019-02-20T03:41:16.481Z,13.07
2019-02-20T03:43:57.273Z,11.67
2019-02-20T03:46:37.935Z,22.87
2019-02-20T03:49:18.510Z,16.57
2019-02-20T03:51:59.218Z,23.33
2019-02-20T03:54:39.759Z,14.23
2019-02-20T03:57:20.422Z,21.67
2019-02-20T04:00:01.381Z,14.53
2019-02-20T04:02:42.121Z,14.13
2019-02-20T04:05:22.975Z,21.57
2019-02-20T04:08:03.519Z,13.87
2019-02-20T04:10:44.272Z,20.03
2019-02-20T04:13:25.164Z,15.30
2019-02-20T04:16:06.190Z,15.50
2019-02-20T04:18:46.771Z,26.50
2019-02-20T04:21:27.442Z,14.87
2019-02-20T04:24:08.191Z,16.50
2019-02-20T04:26:48.779Z,15.63
2019-02-20T04:29:29.683Z,14.77
2019-02-20T04:32:10.235Z,19.87
2019-02-20T04:34:50.903Z,15.73
2019-02-20T04:37:31.953Z,25.50
2019-02-20T04:40:12.527Z,17.23
2019-02-20T04:42:53.183Z,22.50
2019-02-20T04:45:33.757Z,15.53
2019-02-20T04:48:14.826Z,17.50
2019-02-20T04:50:55.497Z,19.23
2019-02-20T04:53:36.315Z,24.53
2019-02-20T04:56:16.856Z,24.63
2019-02-20T04:58:57.525Z,19.77
2019-02-20T05:01:38.642Z,21.80
2019-02-20T05:04:19.211Z,21.63
2019-02-20T05:06:59.938Z,23.07
2019-02-20T05:09:40.374Z,15.63
2019-02-20T05:12:20.724Z,18.93
2019-02-20T05:15:01.311Z,25.33
2019-02-20T05:17:42.154Z,19.63
2019-02-20T05:20:22.879Z,22.73
2019-02-20T05:23:03.574Z,19.53
2019-02-20T05:25:44.398Z,18.57
2019-02-20T05:31:07.600Z,26.00
2019-02-20T05:33:48.392Z,21.10
2019-02-20T05:36:29.166Z,21.77
2019-02-20T05:39:09.888Z,24.33
2019-02-20T05:41:50.654Z,19.20
2019-02-20T05:44:31.482Z,19.23
2019-02-20T05:47:12.148Z,21.47
2019-02-20T05:49:52.925Z,20.50
2019-02-20T05:52:33.348Z,24.13
2019-02-20T05:55:14.157Z,23.10
2019-02-20T05:57:54.723Z,23.87
2019-02-20T06:00:35.646Z,27.77
2019-02-20T06:03:16.303Z,20.23
2019-02-20T06:05:57.106Z,28.13
2019-02-20T06:08:38.047Z,20.90
2019-02-20T06:11:19.200Z,19.43
2019-02-20T06:13:59.940Z,24.03
2019-02-20T06:16:40.724Z,19.90
2019-02-20T06:19:21.502Z,27.83
2019-02-20T06:22:02.527Z,21.00
2019-02-20T06:24:44.308Z,22.63
2019-02-20T06:27:25.413Z,17.37
2019-02-20T06:30:06.145Z,30.13
2019-02-20T06:32:46.600Z,22.97
2019-02-20T06:35:27.234Z,24.93
2019-02-20T06:38:10.787Z,23.70
2019-02-20T06:40:50.958Z,18.03
2019-02-20T06:43:31.647Z,19.67
2019-02-20T06:46:12.280Z,22.53
2019-02-20T06:48:53.010Z,21.60
2019-02-20T06:51:33.778Z,26.40
2019-02-20T06:54:14.811Z,17.97
2019-02-20T06:56:55.341Z,24.93
2019-02-20T06:59:36.182Z,25.23
2019-02-20T07:02:16.745Z,23.87
2019-02-20T07:04:57.326Z,23.60
2019-02-20T07:07:37.875Z,20.50
2019-02-20T07:10:18.643Z,27.63
2019-02-20T07:12:59.169Z,21.30
2019-02-20T07:15:39.607Z,25.37
2019-02-20T07:18:20.183Z,22.57
2019-02-20T07:21:00.798Z,22.00
2019-02-20T07:23:41.828Z,23.13
2019-02-20T07:26:22.650Z,24.33
2019-02-20T07:29:03.278Z,19.47
2019-02-20T07:31:44.045Z,22.00
2019-02-20T07:34:24.770Z,23.10
2019-02-20T07:37:05.458Z,18.60
2019-02-20T07:39:46.430Z,19.83
2019-02-20T07:42:27.243Z,20.63
2019-02-20T07:45:08.007Z,19.90
2019-02-20T07:47:48.718Z,16.87
2019-02-20T07:50:29.407Z,20.17
2019-02-20T07:53:10.158Z,18.87
2019-02-20T07:55:50.863Z,19.23
2019-02-20T07:58:31.514Z,21.27
2019-02-20T08:01:12.414Z,24.53
2019-02-20T08:03:53.184Z,23.53
2019-02-20T08:06:33.955Z,17.23
2019-02-20T08:09:14.515Z,21.47
2019-02-20T08:11:55.174Z,26.77
2019-02-20T08:14:36.016Z,15.33
2019-02-20T08:17:16.895Z,22.50
2019-02-20T08:19:57.742Z,21.33
2019-02-20T08:22:38.478Z,20.10
2019-02-20T08:25:22.899Z,23.60
2019-02-20T08:28:02.150Z,18.93
2019-02-20T08:30:42.813Z,16.43
2019-02-20T08:33:23.248Z,23.70
2019-02-20T08:36:03.931Z,17.50
2019-02-20T08:38:44.811Z,14.10
2019-02-20T08:41:25.382Z,16.03
2019-02-20T08:44:06.072Z,14.23
2019-02-20T08:46:46.747Z,17.73
2019-02-20T08:49:27.416Z,18.90
2019-02-20T08:52:08.169Z,20.93
2019-02-20T08:54:48.973Z,15.80
2019-02-20T08:57:29.758Z,21.87
2019-02-20T09:00:10.863Z,14.33
2019-02-20T09:02:52.106Z,18.90
2019-02-20T09:05:34.250Z,18.20
2019-02-20T09:08:15.065Z,14.57
2019-02-20T09:10:55.475Z,19.07
2019-02-20T09:13:36.326Z,13.90
2019-02-20T09:16:16.695Z,16.77
2019-02-20T09:18:57.899Z,18.23
2019-02-20T09:21:38.567Z,15.67
2019-02-20T09:24:19.075Z,15.10
2019-02-20T09:26:59.790Z,18.17
2019-02-20T09:29:40.651Z,13.13
2019-02-20T09:32:21.258Z,14.87
2019-02-20T09:35:01.967Z,13.80
2019-02-20T09:37:42.623Z,16.43
2019-02-20T09:40:23.473Z,16.90
2019-02-20T09:43:04.303Z,15.03
2019-02-20T09:45:45.166Z,17.20
2019-02-20T09:48:26.033Z,12.27
2019-02-20T09:51:06.785Z,19.50
2019-02-20T09:53:47.746Z,12.10
2019-02-20T09:56:29.000Z,14.33
2019-02-20T09:59:09.842Z,12.03
2019-02-20T10:01:50.622Z,13.17
2019-02-20T10:04:31.511Z,12.60
2019-02-20T10:07:12.368Z,11.07
2019-02-20T10:09:53.032Z,14.97
2019-02-20T10:12:34.031Z,11.70
2019-02-20T10:15:14.741Z,9.10
2019-02-20T10:17:55.776Z,12.57
2019-02-20T10:20:36.174Z,14.33
2019-02-20T10:23:17.110Z,8.90
2019-02-20T10:26:00.987Z,8.67
2019-02-20T10:28:28.745Z,13.57
2019-02-20T10:31:16.762Z,13.80
2019-02-20T10:34:04.746Z,17.10
2019-02-20T10:36:53.031Z,9.37
2019-02-20T10:39:41.042Z,9.13
2019-02-20T10:42:29.034Z,11.60
2019-02-20T10:45:17.382Z,10.80
2019-02-20T10:48:05.458Z,5.67
2019-02-20T10:50:53.722Z,14.80
2019-02-20T10:53:41.720Z,11.20
2019-02-20T10:56:29.731Z,15.23
2019-02-20T11:02:24.820Z,10.97
2019-02-20T11:05:13.062Z,10.70
2019-02-20T11:08:01.049Z,13.93
2019-02-20T11:10:49.078Z,9.07
2019-02-20T11:13:37.338Z,9.80
2019-02-20T11:16:25.723Z,11.47
2019-02-20T11:19:15.601Z,10.17
2019-02-20T11:22:03.914Z,8.03
2019-02-20T11:24:53.709Z,8.50
2019-02-20T11:27:41.605Z,10.93
2019-02-20T11:30:29.651Z,14.27
2019-02-20T11:33:17.646Z,11.83
2019-02-20T11:38:59.523Z,8.93
2019-02-20T11:41:47.871Z,10.60
2019-02-20T11:44:35.862Z,7.93
2019-02-20T11:47:23.866Z,8.57
2019-02-20T11:50:12.210Z,15.30
2019-02-20T11:53:00.197Z,5.83
2019-02-20T11:55:48.182Z,11.27
2019-02-20T11:58:36.425Z,13.57
2019-02-20T12:01:24.679Z,13.80
2019-02-20T12:04:12.646Z,8.10
2019-02-20T12:07:00.642Z,14.63
2019-02-20T12:09:48.632Z,5.77
2019-02-20T12:12:36.611Z,6.87
2019-02-20T12:15:24.899Z,8.13
2019-02-20T12:18:17.395Z,8.20
2019-02-20T12:21:02.957Z,8.40
2019-02-20T12:23:43.772Z,9.90
2019-02-20T12:26:24.895Z,14.13
2019-02-20T12:29:05.655Z,11.50
2019-02-20T12:31:52.298Z,12.97
2019-02-20T12:34:29.138Z,21.70
2019-02-20T12:37:09.966Z,10.10
2019-02-20T12:39:50.490Z,10.27
2019-02-20T12:42:31.957Z,11.37
2019-02-20T12:45:13.079Z,15.03
2019-02-20T12:47:53.531Z,13.70
2019-02-20T12:50:34.143Z,10.33
2019-02-20T12:53:15.184Z,13.63
2019-02-20T12:55:55.516Z,7.33
2019-02-20T12:58:36.236Z,8.47
2019-02-20T13:01:17.046Z,10.70
2019-02-20T13:03:57.803Z,9.03
2019-02-20T13:06:38.603Z,8.87
2019-02-20T13:09:19.321Z,14.60
2019-02-20T13:11:59.828Z,7.40
2019-02-20T13:14:40.655Z,9.20
2019-02-20T13:17:21.319Z,7.33
2019-02-20T13:20:01.743Z,6.53
2019-02-20T13:22:42.260Z,9.00
2019-02-20T13:25:22.897Z,7.87
2019-02-20T13:28:03.640Z,11.60
2019-02-20T13:30:44.056Z,10.13
2019-02-20T13:33:24.804Z,7.50
2019-02-20T13:36:05.555Z,11.40
2019-02-20T13:38:46.553Z,9.40
2019-02-20T13:41:27.235Z,9.57
2019-02-20T13:44:07.864Z,17.10
2019-02-20T13:46:48.587Z,5.83
2019-02-20T13:49:30.000Z,6.67
2019-02-20T13:52:10.588Z,10.97
2019-02-20T13:54:51.446Z,11.17
2019-02-20T13:57:32.464Z,9.30
2019-02-20T14:00:01.692Z,10.97
2019-02-20T14:02:50.242Z,9.57
2019-02-20T14:05:38.483Z,6.33
2019-02-20T14:08:26.840Z,9.67
2019-02-20T14:11:14.892Z,13.20
2019-02-20T14:14:03.234Z,12.07
2019-02-20T14:16:51.309Z,9.20
2019-02-20T14:19:39.355Z,6.43
2019-02-20T14:22:20.794Z,6.87
2019-02-20T14:25:02.767Z,9.80
2019-02-20T14:27:43.551Z,10.23
2019-02-20T14:30:24.247Z,9.07
2019-02-20T14:33:04.943Z,12.73
2019-02-20T14:35:45.536Z,7.33
2019-02-20T14:38:26.011Z,10.50
2019-02-20T14:41:06.719Z,6.83
2019-02-20T14:43:47.310Z,13.07
2019-02-20T14:46:27.744Z,7.23
2019-02-20T14:49:09.474Z,9.17
2019-02-20T14:51:50.227Z,12.40
2019-02-20T14:54:30.857Z,8.77
2019-02-20T14:57:19.172Z,9.33
2019-02-20T14:59:54.288Z,8.47
2019-02-20T15:02:34.635Z,11.00
2019-02-20T15:05:15.349Z,7.40
2019-02-20T15:07:55.710Z,7.37
2019-02-20T15:10:36.216Z,7.23
2019-02-20T15:13:16.687Z,9.53
2019-02-20T15:15:57.705Z,8.27
2019-02-20T15:18:39.071Z,7.03
2019-02-20T15:21:19.971Z,8.47
2019-02-20T15:24:01.052Z,9.57
2019-02-20T15:26:42.043Z,8.30
2019-02-20T15:29:22.919Z,10.53
2019-02-20T15:32:03.917Z,14.03
2019-02-20T15:34:44.353Z,11.13
2019-02-20T15:37:25.368Z,13.97
2019-02-20T15:40:06.503Z,8.10
2019-02-20T15:42:47.035Z,13.67
2019-02-20T15:45:27.578Z,11.97
2019-02-20T15:48:08.679Z,10.37
2019-02-20T15:50:49.787Z,8.57
2019-02-20T15:53:30.860Z,7.30
2019-02-20T15:56:11.849Z,8.00
2019-02-20T15:58:52.667Z,14.03
2019-02-20T16:01:33.197Z,7.70
2019-02-20T16:04:14.284Z,8.33
2019-02-20T16:06:55.584Z,7.53
2019-02-20T16:09:36.326Z,10.77
2019-02-20T16:12:17.247Z,8.50
2019-02-20T16:14:58.636Z,13.70
2019-02-20T16:17:39.391Z,11.37
2019-02-20T16:20:20.653Z,9.90
2019-02-20T16:23:01.000Z,9.77
2019-02-20T16:25:41.751Z,10.73
2019-02-20T16:28:22.232Z,7.27
2019-02-20T16:31:02.833Z,18.40
2019-02-20T16:33:43.347Z,11.27
2019-02-20T16:36:24.147Z,14.63
2019-02-20T16:39:05.326Z,7.57
2019-02-20T16:41:46.088Z,13.20
2019-02-20T16:44:26.690Z,10.20
2019-02-20T16:47:07.838Z,10.00
2019-02-20T16:49:49.160Z,8.13
2019-02-20T16:52:30.311Z,13.57
2019-02-20T16:55:11.084Z,12.50
2019-02-20T16:57:56.775Z,6.90
2019-02-20T17:00:34.228Z,13.30
2019-02-20T17:03:14.962Z,10.53
2019-02-20T17:05:55.459Z,14.60
2019-02-20T17:08:36.071Z,11.90
2019-02-20T17:11:17.479Z,9.63
2019-02-20T17:13:58.270Z,9.77
2019-02-20T17:16:38.623Z,8.00
2019-02-20T17:19:19.161Z,7.33
2019-02-20T17:21:59.899Z,18.20
2019-02-20T17:24:40.561Z,8.80
2019-02-20T17:27:21.407Z,8.43
2019-02-20T17:30:02.124Z,9.40
2019-02-20T17:32:42.995Z,16.03
2019-02-20T17:35:23.806Z,13.27
2019-02-20T17:38:04.205Z,12.83
2019-02-20T17:40:44.775Z,8.40
2019-02-20T17:43:25.327Z,9.40
2019-02-20T17:46:06.056Z,14.47
2019-02-20T17:48:47.216Z,15.23
2019-02-20T17:51:27.878Z,10.73
2019-02-20T17:54:08.634Z,11.70
2019-02-20T17:56:49.511Z,9.27
2019-02-20T17:59:30.893Z,9.67
2019-02-20T18:02:11.393Z,13.67
2019-02-20T18:04:51.931Z,8.63
2019-02-20T18:07:32.780Z,10.80
2019-02-20T18:10:14.054Z,11.20
2019-02-20T18:12:54.559Z,8.77
2019-02-20T18:15:34.927Z,10.73
2019-02-20T18:18:15.512Z,10.13
2019-02-20T18:20:56.987Z,13.60
2019-02-20T18:23:37.927Z,14.20
2019-02-20T18:26:18.510Z,14.07
2019-02-20T18:28:58.873Z,12.43
2019-02-20T18:31:40.332Z,12.23
2019-02-20T18:34:21.037Z,11.80
2019-02-20T18:37:01.953Z,15.50
2019-02-20T18:39:42.653Z,9.33
2019-02-20T18:42:23.627Z,10.37
2019-02-20T18:45:04.729Z,14.27
2019-02-20T18:47:45.689Z,13.50
2019-02-20T18:50:27.902Z,14.37
2019-02-20T18:53:08.983Z,10.33
2019-02-20T18:55:49.491Z,16.13
2019-02-20T18:58:33.952Z,10.57
2019-02-20T19:01:13.809Z,12.50
2019-02-20T19:03:56.718Z,13.30
2019-02-20T19:06:37.296Z,13.87
2019-02-20T19:09:17.792Z,12.20
2019-02-20T19:11:58.439Z,13.03
2019-02-20T19:14:39.046Z,14.00
2019-02-20T19:17:19.626Z,11.97
2019-02-20T19:20:00.349Z,67.60
2019-02-20T19:22:40.928Z,22.40
2019-02-20T19:25:21.295Z,16.43
2019-02-20T19:28:02.048Z,23.33
2019-02-20T19:30:42.806Z,24.37
2019-02-20T19:33:23.390Z,21.40
2019-02-20T19:36:03.760Z,15.50
2019-02-20T19:38:45.007Z,16.23
2019-02-20T19:41:25.561Z,16.07
2019-02-20T19:44:06.406Z,15.90
2019-02-20T19:46:47.017Z,14.37
2019-02-20T19:49:27.594Z,12.13
2019-02-20T19:52:08.250Z,15.80
2019-02-20T19:54:49.021Z,18.50
2019-02-20T19:57:29.804Z,16.80
2019-02-20T20:00:10.492Z,15.63
2019-02-20T20:02:51.635Z,15.60
2019-02-20T20:05:32.619Z,18.70
2019-02-20T20:08:13.253Z,16.60
2019-02-20T20:10:54.298Z,15.20
2019-02-20T20:13:34.918Z,17.03
2019-02-20T20:16:17.546Z,16.60
2019-02-20T20:18:58.370Z,16.37
2019-02-20T20:21:39.133Z,16.07
2019-02-20T20:24:22.606Z,16.47
2019-02-20T20:27:02.743Z,19.10
2019-02-20T20:29:43.451Z,28.13
2019-02-20T20:32:24.379Z,17.83
2019-02-20T20:35:05.611Z,35.27
2019-02-20T20:37:46.639Z,28.60
2019-02-20T20:40:27.862Z,26.00
2019-02-20T20:43:08.832Z,24.90
2019-02-20T20:45:49.723Z,22.47
2019-02-20T20:48:30.242Z,20.63
2019-02-20T20:51:11.144Z,28.20
2019-02-20T20:53:51.983Z,27.07
2019-02-20T20:56:32.588Z,23.60
2019-02-20T20:59:17.466Z,21.30
2019-02-20T21:01:56.239Z,24.90
2019-02-20T21:04:37.118Z,23.63
2019-02-20T21:07:17.848Z,28.47
2019-02-20T21:09:58.831Z,25.60
2019-02-20T21:12:39.472Z,23.90
2019-02-20T21:15:20.231Z,25.20
2019-02-20T21:18:01.262Z,23.53
2019-02-20T21:20:41.964Z,28.13
2019-02-20T21:23:49.183Z,26.07
2019-02-20T21:26:56.397Z,25.37
2019-02-20T21:30:03.707Z,29.17
2019-02-20T21:33:17.944Z,28.73
2019-02-20T21:36:25.387Z,27.70
2019-02-20T21:39:17.263Z,26.83
2019-02-20T21:42:09.152Z,30.83
2019-02-20T21:45:16.603Z,23.87
2019-02-20T21:48:23.799Z,31.03
2019-02-20T21:51:31.282Z,26.97
2019-02-20T21:54:38.792Z,31.17
2019-02-20T21:57:45.991Z,27.20
2019-02-20T22:00:53.214Z,28.87
2019-02-20T22:04:00.414Z,22.87
2019-02-20T22:07:07.631Z,34.90
2019-02-20T22:10:14.870Z,33.10
2019-02-20T22:13:22.074Z,26.60
2019-02-20T22:16:29.735Z,30.10
2019-02-20T22:19:37.184Z,26.73
2019-02-20T22:22:44.403Z,29.10
2019-02-20T22:25:25.100Z,33.97
2019-02-20T22:28:05.635Z,34.20
2019-02-20T22:30:46.115Z,28.60
2019-02-20T22:33:26.887Z,30.47
2019-02-20T22:36:07.698Z,30.73
2019-02-20T22:38:48.924Z,26.00
2019-02-20T22:41:29.411Z,25.33
2019-02-20T22:44:10.403Z,27.97
2019-02-20T22:49:47.401Z,27.37
2019-02-20T22:52:27.807Z,25.40
2019-02-20T22:55:08.628Z,24.50
2019-02-20T22:57:49.579Z,27.23
2019-02-20T23:00:34.620Z,26.80
2019-02-20T23:03:14.573Z,25.10
2019-02-20T23:05:55.489Z,29.13
2019-02-20T23:08:36.520Z,31.23
2019-02-20T23:11:17.197Z,27.43
2019-02-20T23:13:58.046Z,27.33
2019-02-20T23:16:38.939Z,26.90
2019-02-20T23:19:19.591Z,28.40
2019-02-20T23:22:00.171Z,29.73
2019-02-20T23:24:42.075Z,32.57
2019-02-20T23:27:22.523Z,25.83
2019-02-20T23:30:12.571Z,22.83
2019-02-20T23:32:46.052Z,25.40
2019-02-20T23:35:26.726Z,25.53
2019-02-20T23:38:07.930Z,31.50
2019-02-20T23:40:49.118Z,25.10
2019-02-20T23:43:29.547Z,23.13
2019-02-20T23:46:10.531Z,27.10
2019-02-20T23:48:50.922Z,25.37
2019-02-20T23:51:31.434Z,24.17
2019-02-20T23:54:12.891Z,21.57
2019-02-20T23:56:53.601Z,28.50
2019-02-20T23:59:34.257Z,28.40
